Time;durP1;ratioP1;P1;durP2;ratioP2;P2;SDS_P1;SDS_P2;PMS_P1;PMS_P2;Temp;Humidity;BMP_temperature;BMP_pressure;BME280_temperature;BME280_humidity;BME280_pressure;Samples;Min_cycle;Max_cycle;Signal;HPM_P1;HPM_P2
2022/02/20 00:00:48;;;;;;;2.95;1.58;;;6.60;99.90;;;;;;5077726;28;20196;-71
2022/02/20 00:03:15;;;;;;;1.45;1.25;;;6.70;99.90;;;;;;5076176;28;20542;-70
2022/02/20 00:05:41;;;;;;;6.57;1.75;;;6.70;99.90;;;;;;5078053;28;20303;-71
2022/02/20 00:08:08;;;;;;;5.85;1.60;;;6.70;99.90;;;;;;5077389;28;20204;-70
2022/02/20 00:10:34;;;;;;;5.05;2.03;;;6.70;99.90;;;;;;5077107;28;20203;-71
2022/02/20 00:13:01;;;;;;;2.15;1.38;;;6.80;99.90;;;;;;5076320;28;20204;-71
2022/02/20 00:15:27;;;;;;;4.68;1.63;;;6.80;99.90;;;;;;5076674;28;20600;-71
2022/02/20 00:17:54;;;;;;;3.03;1.80;;;6.80;99.90;;;;;;5077578;28;20534;-71
2022/02/20 00:20:22;;;;;;;10.02;1.60;;;6.80;99.90;;;;;;5078154;28;20215;-71
2022/02/20 00:22:49;;;;;;;3.15;2.00;;;6.80;99.90;;;;;;5079040;28;20222;-70
2022/02/20 00:25:16;;;;;;;8.63;2.05;;;6.90;99.90;;;;;;5079451;28;20196;-70
2022/02/20 00:27:42;;;;;;;6.25;1.98;;;6.90;99.90;;;;;;5079676;28;20682;-71
2022/02/20 00:30:09;;;;;;;6.85;1.52;;;6.90;99.90;;;;;;5079230;28;20230;-70
2022/02/20 00:32:35;;;;;;;5.18;2.25;;;6.90;99.90;;;;;;5078572;28;20208;-71
2022/02/20 00:35:02;;;;;;;11.27;2.60;;;7.00;99.90;;;;;;5078337;28;20200;-71
2022/02/20 00:37:28;;;;;;;6.57;2.25;;;7.00;99.90;;;;;;5078370;28;20707;-70
2022/02/20 00:39:55;;;;;;;7.25;1.67;;;6.90;99.90;;;;;;5078569;28;20220;-70
2022/02/20 00:42:21;;;;;;;3.97;1.55;;;7.00;99.90;;;;;;5078033;28;20200;-70
2022/02/20 00:44:47;;;;;;;5.80;2.10;;;7.00;99.90;;;;;;5078167;28;20200;-72
2022/02/20 00:47:14;;;;;;;6.43;1.50;;;7.00;99.90;;;;;;5078008;28;20200;-72
2022/02/20 00:49:40;;;;;;;7.28;2.00;;;7.10;99.90;;;;;;5078227;28;20196;-71
2022/02/20 00:52:07;;;;;;;5.07;2.17;;;7.20;99.90;;;;;;5077862;28;20286;-71
2022/02/20 00:54:34;;;;;;;4.03;2.17;;;7.20;99.90;;;;;;5077087;28;20211;-69
2022/02/20 00:57:00;;;;;;;8.70;2.65;;;7.30;99.90;;;;;;5076147;28;20294;-71
2022/02/20 00:59:26;;;;;;;3.55;1.60;;;7.30;99.90;;;;;;5077418;28;20224;-71
2022/02/20 01:01:53;;;;;;;7.90;1.95;;;7.40;99.90;;;;;;5078029;28;20302;-71
2022/02/20 01:04:19;;;;;;;3.63;1.80;;;7.40;99.90;;;;;;5076060;28;20227;-71
2022/02/20 01:06:46;;;;;;;4.25;2.22;;;7.40;99.90;;;;;;5075773;28;20705;-71
2022/02/20 01:09:12;;;;;;;9.52;1.60;;;7.50;99.90;;;;;;5077010;28;20602;-71
2022/02/20 01:11:41;;;;;;;5.57;1.90;;;7.40;99.90;;;;;;5077212;28;20762;-71
2022/02/20 01:14:08;;;;;;;7.20;2.75;;;7.40;99.90;;;;;;5077781;28;20200;-70
2022/02/20 01:16:34;;;;;;;6.80;1.60;;;7.40;99.90;;;;;;5076178;28;20333;-71
2022/02/20 01:19:01;;;;;;;4.15;1.63;;;7.40;99.90;;;;;;5076286;28;20215;-71
2022/02/20 01:21:28;;;;;;;6.20;2.00;;;7.40;99.90;;;;;;5076158;28;20196;-70
2022/02/20 01:23:54;;;;;;;3.33;2.00;;;7.50;99.90;;;;;;5074742;28;20234;-70
2022/02/20 01:26:21;;;;;;;5.13;1.70;;;7.40;99.90;;;;;;5075583;28;20196;-71
2022/02/20 01:28:47;;;;;;;9.77;2.00;;;7.40;99.90;;;;;;5073986;28;20196;-71
2022/02/20 01:31:13;;;;;;;4.50;1.42;;;7.40;99.90;;;;;;5074960;28;20203;-70
2022/02/20 01:33:40;;;;;;;3.45;1.60;;;7.40;99.90;;;;;;5075152;28;20222;-71
2022/02/20 01:36:08;;;;;;;3.58;1.60;;;7.40;99.90;;;;;;5074737;28;20744;-70
2022/02/20 01:38:35;;;;;;;3.85;1.80;;;7.40;99.90;;;;;;5074451;28;20282;-70
2022/02/20 01:41:02;;;;;;;3.58;1.45;;;7.30;99.90;;;;;;5074333;28;20192;-71
2022/02/20 01:43:29;;;;;;;3.83;1.60;;;7.20;99.90;;;;;;5073397;28;20656;-70
2022/02/20 01:45:55;;;;;;;7.85;1.70;;;7.20;99.90;;;;;;5074312;28;20196;-70
2022/02/20 01:48:22;;;;;;;7.32;1.73;;;7.20;99.90;;;;;;5074880;28;20199;-69
2022/02/20 01:50:49;;;;;;;4.22;2.25;;;7.20;99.90;;;;;;5074882;28;20261;-71
2022/02/20 01:53:15;;;;;;;4.50;1.50;;;7.20;99.90;;;;;;5074351;28;20269;-71
2022/02/20 01:55:42;;;;;;;2.53;1.70;;;7.20;99.90;;;;;;5074214;28;20234;-70
2022/02/20 01:58:09;;;;;;;2.78;1.45;;;7.20;99.90;;;;;;5074617;28;20208;-70
2022/02/20 02:00:35;;;;;;;6.80;1.80;;;7.20;99.90;;;;;;5074033;28;20258;-70
2022/02/20 02:03:03;;;;;;;2.08;1.70;;;7.20;99.90;;;;;;5073142;28;20204;-69
2022/02/20 02:05:30;;;;;;;4.35;1.48;;;7.10;99.90;;;;;;5073117;28;20235;-69
2022/02/20 02:07:56;;;;;;;5.32;1.42;;;7.00;99.90;;;;;;5073281;28;20211;-69
2022/02/20 02:10:23;;;;;;;5.50;1.80;;;7.00;99.90;;;;;;5073587;28;20608;-69
2022/02/20 02:12:49;;;;;;;4.60;1.40;;;7.00;99.90;;;;;;5073542;28;20210;-69
2022/02/20 02:15:16;;;;;;;3.88;1.35;;;7.00;99.90;;;;;;5073450;28;20269;-69
2022/02/20 02:17:42;;;;;;;1.88;1.10;;;7.00;99.90;;;;;;5076603;28;20253;-69
2022/02/20 02:20:09;;;;;;;3.20;1.52;;;6.90;99.90;;;;;;5077282;28;20614;-69
2022/02/20 02:22:36;;;;;;;11.50;1.98;;;6.90;99.90;;;;;;5077003;28;20692;-69
2022/02/20 02:25:04;;;;;;;5.15;1.40;;;6.80;99.90;;;;;;5077013;28;20207;-69
2022/02/20 02:27:31;;;;;;;6.05;1.90;;;6.80;99.90;;;;;;5077047;28;20667;-69
2022/02/20 02:29:58;;;;;;;12.43;1.75;;;6.90;99.90;;;;;;5076853;28;20216;-69
2022/02/20 02:32:24;;;;;;;5.82;1.20;;;6.80;99.90;;;;;;5077689;28;20238;-69
2022/02/20 02:34:51;;;;;;;7.57;1.90;;;6.80;99.90;;;;;;5077368;28;20211;-69
2022/02/20 02:37:17;;;;;;;4.50;2.35;;;6.80;99.90;;;;;;5076163;28;20551;-69
2022/02/20 02:39:44;;;;;;;4.13;1.85;;;6.70;99.90;;;;;;5076843;28;20644;-69
2022/02/20 02:42:11;;;;;;;6.20;2.13;;;6.70;99.90;;;;;;5076807;28;20547;-69
2022/02/20 02:44:38;;;;;;;3.92;1.70;;;6.70;99.90;;;;;;5076748;28;20196;-69
2022/02/20 02:47:05;;;;;;;5.07;1.75;;;6.70;99.90;;;;;;5077167;28;20254;-69
2022/02/20 02:49:31;;;;;;;7.22;1.73;;;6.70;99.90;;;;;;5075717;28;20204;-69
2022/02/20 02:51:58;;;;;;;1.60;1.25;;;6.70;99.90;;;;;;5077000;28;20201;-69
2022/02/20 02:54:24;;;;;;;4.70;1.45;;;6.70;99.90;;;;;;5077204;28;20215;-69
2022/02/20 02:56:51;;;;;;;6.53;1.50;;;6.80;99.90;;;;;;5076953;28;20596;-69
2022/02/20 02:59:18;;;;;;;10.55;1.20;;;6.80;99.90;;;;;;5076727;28;20277;-69
2022/02/20 03:01:46;;;;;;;4.43;1.77;;;6.80;99.90;;;;;;5076728;28;20562;-69
2022/02/20 03:04:13;;;;;;;7.38;1.85;;;6.80;99.90;;;;;;5077064;28;20200;-69
2022/02/20 03:06:40;;;;;;;4.40;1.60;;;6.80;99.90;;;;;;5077561;28;20216;-69
2022/02/20 03:09:06;;;;;;;2.00;1.23;;;6.80;99.90;;;;;;5077478;28;20196;-69
2022/02/20 03:11:33;;;;;;;5.47;1.70;;;6.80;99.90;;;;;;5076623;28;20707;-69
2022/02/20 03:14:01;;;;;;;5.15;1.40;;;6.80;99.90;;;;;;5076652;28;20214;-69
2022/02/20 03:16:28;;;;;;;4.57;1.77;;;6.80;99.90;;;;;;5077225;28;20682;-69
2022/02/20 03:18:55;;;;;;;3.47;1.65;;;6.70;99.90;;;;;;5076152;28;20219;-69
2022/02/20 03:21:22;;;;;;;2.70;1.23;;;6.70;99.90;;;;;;5076798;28;20196;-69
2022/02/20 03:23:49;;;;;;;5.50;1.48;;;6.70;99.90;;;;;;5076326;28;20254;-70
2022/02/20 03:26:15;;;;;;;3.55;1.52;;;6.60;99.90;;;;;;5076060;28;20199;-70
2022/02/20 03:28:41;;;;;;;6.07;1.45;;;6.60;99.90;;;;;;5075458;28;20204;-69
2022/02/20 03:31:08;;;;;;;2.75;1.60;;;6.60;99.90;;;;;;5076164;28;20213;-69
2022/02/20 03:33:35;;;;;;;5.15;1.90;;;6.60;99.90;;;;;;5076413;28;20207;-70
2022/02/20 03:36:02;;;;;;;7.05;2.28;;;6.60;99.90;;;;;;5075619;28;20262;-69
2022/02/20 03:38:29;;;;;;;6.05;1.33;;;6.60;99.90;;;;;;5075237;28;20203;-69
2022/02/20 03:40:56;;;;;;;6.07;1.77;;;6.60;99.90;;;;;;5075851;28;20276;-69
2022/02/20 03:43:22;;;;;;;3.75;1.70;;;6.50;99.90;;;;;;5074389;28;20196;-69
2022/02/20 03:45:48;;;;;;;4.85;1.52;;;6.50;99.90;;;;;;5075552;28;20268;-69
2022/02/20 03:48:15;;;;;;;3.45;1.80;;;6.40;99.90;;;;;;5075364;28;20199;-69
2022/02/20 03:50:41;;;;;;;5.88;1.75;;;6.40;99.90;;;;;;5075337;28;20261;-69
2022/02/20 03:53:08;;;;;;;6.35;1.88;;;6.40;99.90;;;;;;5075660;28;20212;-70
2022/02/20 03:55:34;;;;;;;3.33;1.40;;;6.40;99.90;;;;;;5075998;28;20203;-70
2022/02/20 03:58:00;;;;;;;4.03;1.83;;;6.40;99.90;;;;;;5075723;28;20207;-70
2022/02/20 04:00:27;;;;;;;2.40;1.60;;;6.40;99.90;;;;;;5075280;28;20227;-70
2022/02/20 04:02:54;;;;;;;3.42;1.35;;;6.50;99.90;;;;;;5075276;28;20196;-69
2022/02/20 04:05:21;;;;;;;3.03;1.80;;;6.50;99.90;;;;;;5075373;28;20606;-69
2022/02/20 04:07:48;;;;;;;3.90;2.17;;;6.50;99.90;;;;;;5075201;28;20196;-69
2022/02/20 04:10:15;;;;;;;8.43;1.63;;;6.60;99.90;;;;;;5075251;28;20616;-69
2022/02/20 04:12:43;;;;;;;3.55;1.63;;;6.60;99.90;;;;;;5075348;28;20233;-69
2022/02/20 04:15:13;;;;;;;5.95;1.55;;;6.60;99.90;;;;;;5075080;28;20200;-69
2022/02/20 04:17:41;;;;;;;2.65;1.10;;;6.50;99.90;;;;;;5075044;28;20652;-69
2022/02/20 04:20:09;;;;;;;4.75;1.67;;;6.50;99.90;;;;;;5075394;28;20215;-69
2022/02/20 04:22:36;;;;;;;5.70;1.80;;;6.50;99.90;;;;;;5075177;28;20196;-69
2022/02/20 04:25:03;;;;;;;6.32;1.30;;;6.50;99.90;;;;;;5074915;28;20249;-69
2022/02/20 04:27:29;;;;;;;3.05;1.35;;;6.50;99.90;;;;;;5074615;28;20196;-69
2022/02/20 04:29:56;;;;;;;6.18;1.65;;;6.50;99.90;;;;;;5075118;28;20202;-69
2022/02/20 04:32:22;;;;;;;4.38;2.33;;;6.50;99.90;;;;;;5073473;28;20573;-69
2022/02/20 04:34:49;;;;;;;2.85;1.38;;;6.40;99.90;;;;;;5074325;28;20210;-69
2022/02/20 04:37:15;;;;;;;5.65;1.35;;;6.40;99.90;;;;;;5075179;28;20211;-71
2022/02/20 04:39:41;;;;;;;1.60;1.23;;;6.50;99.90;;;;;;5074495;28;20212;-70
2022/02/20 04:42:08;;;;;;;5.75;2.20;;;6.40;99.90;;;;;;5074623;28;20617;-70
2022/02/20 04:44:34;;;;;;;3.63;1.25;;;6.40;99.90;;;;;;5074744;28;20204;-69
2022/02/20 04:47:00;;;;;;;3.22;1.10;;;6.50;99.90;;;;;;5074716;28;20197;-69
2022/02/20 04:49:27;;;;;;;7.03;1.58;;;6.50;99.90;;;;;;5074973;28;20208;-69
2022/02/20 04:51:53;;;;;;;5.88;1.80;;;6.60;99.90;;;;;;5074393;28;20210;-69
2022/02/20 04:54:20;;;;;;;3.00;1.30;;;6.60;99.90;;;;;;5074739;28;20208;-69
2022/02/20 04:56:46;;;;;;;4.65;2.00;;;6.70;99.90;;;;;;5074322;28;20575;-70
2022/02/20 04:59:14;;;;;;;5.43;1.73;;;6.70;99.90;;;;;;5074413;28;20200;-69
2022/02/20 05:01:40;;;;;;;5.18;1.98;;;6.70;99.90;;;;;;5072745;28;20223;-69
2022/02/20 05:04:08;;;;;;;3.80;2.80;;;6.70;99.90;;;;;;5073890;28;20200;-69
2022/02/20 05:06:35;;;;;;;3.78;1.50;;;6.70;99.90;;;;;;5074138;28;20577;-69
2022/02/20 05:09:02;;;;;;;1.75;1.30;;;6.70;99.90;;;;;;5074352;28;20207;-69
2022/02/20 05:11:30;;;;;;;4.75;1.35;;;6.70;99.90;;;;;;5074679;28;20204;-69
2022/02/20 05:13:58;;;;;;;2.83;1.30;;;6.70;99.90;;;;;;5074163;28;20536;-70
2022/02/20 05:16:27;;;;;;;2.65;1.10;;;6.70;99.90;;;;;;5074333;28;20234;-70
2022/02/20 05:18:54;;;;;;;7.75;1.85;;;6.70;99.90;;;;;;5074066;28;20276;-70
2022/02/20 05:21:21;;;;;;;6.00;2.00;;;6.70;99.90;;;;;;5074252;28;20242;-69
2022/02/20 05:23:47;;;;;;;4.90;1.45;;;6.80;99.90;;;;;;5073642;28;20196;-69
2022/02/20 05:26:14;;;;;;;3.78;1.48;;;6.80;99.90;;;;;;5056030;28;20667;-69
2022/02/20 05:28:41;;;;;;;5.93;1.52;;;6.80;99.90;;;;;;5073877;28;20200;-70
2022/02/20 05:31:08;;;;;;;6.13;2.15;;;6.80;99.90;;;;;;5073077;28;20204;-70
2022/02/20 05:33:35;;;;;;;20.02;9.60;;;6.80;99.90;;;;;;5073527;28;20203;-69
2022/02/20 05:36:02;;;;;;;3.47;2.00;;;6.80;99.90;;;;;;5073968;28;20195;-69
2022/02/20 05:38:28;;;;;;;3.22;2.92;;;6.80;99.90;;;;;;5073683;28;20648;-69
2022/02/20 05:40:55;;;;;;;4.72;1.55;;;6.70;99.90;;;;;;5073667;28;20226;-69
2022/02/20 05:43:21;;;;;;;6.10;5.03;;;6.80;99.90;;;;;;5073906;28;20261;-69
2022/02/20 05:45:48;;;;;;;8.07;4.30;;;6.70;99.90;;;;;;5073989;28;20574;-69
2022/02/20 05:48:16;;;;;;;6.45;2.30;;;6.70;99.90;;;;;;5073891;28;20192;-69
2022/02/20 05:50:43;;;;;;;11.18;2.55;;;6.70;99.90;;;;;;5072476;28;20207;-69
2022/02/20 05:53:09;;;;;;;9.13;2.92;;;6.70;99.90;;;;;;5078101;28;20210;-69
2022/02/20 05:55:37;;;;;;;6.57;5.00;;;6.70;99.90;;;;;;5078290;28;20200;-69
2022/02/20 05:58:04;;;;;;;8.32;3.65;;;6.70;99.90;;;;;;5078233;28;20578;-69
2022/02/20 06:00:30;;;;;;;4.47;3.40;;;6.60;99.90;;;;;;5078014;28;20216;-69
2022/02/20 06:02:57;;;;;;;8.15;4.45;;;6.60;99.90;;;;;;5077819;28;20204;-69
2022/02/20 06:05:23;;;;;;;12.55;7.43;;;6.60;99.90;;;;;;5077502;28;20236;-69
2022/02/20 06:07:50;;;;;;;11.77;5.88;;;6.60;99.90;;;;;;5077745;28;20199;-69
2022/02/20 06:10:16;;;;;;;13.60;8.57;;;6.60;99.90;;;;;;5078168;28;20204;-69
2022/02/20 06:12:43;;;;;;;13.27;8.82;;;6.60;99.90;;;;;;5077254;28;20577;-69
2022/02/20 06:15:09;;;;;;;17.48;10.52;;;6.60;99.90;;;;;;5077001;28;20253;-69
2022/02/20 06:17:36;;;;;;;29.95;15.55;;;6.60;99.90;;;;;;5077635;28;20266;-69
2022/02/20 06:20:03;;;;;;;18.17;7.28;;;6.60;99.90;;;;;;5077275;28;20223;-70
2022/02/20 06:22:30;;;;;;;7.70;1.90;;;6.70;99.90;;;;;;5077267;28;20192;-69
2022/02/20 06:24:56;;;;;;;14.07;6.10;;;6.70;99.90;;;;;;5077407;28;20203;-69
2022/02/20 06:27:23;;;;;;;7.05;3.33;;;6.80;99.90;;;;;;5077734;28;20212;-69
2022/02/20 06:29:49;;;;;;;4.28;2.03;;;6.80;99.90;;;;;;5076248;28;20199;-69
2022/02/20 06:32:16;;;;;;;7.07;4.35;;;6.80;99.90;;;;;;5077038;28;20207;-69
2022/02/20 06:34:42;;;;;;;1.70;1.60;;;6.80;99.90;;;;;;5077334;28;20208;-69
2022/02/20 06:37:08;;;;;;;2.85;1.40;;;6.80;99.90;;;;;;5077419;28;20206;-70
2022/02/20 06:39:36;;;;;;;6.50;1.63;;;6.80;99.90;;;;;;5077338;28;20272;-70
2022/02/20 06:42:04;;;;;;;4.28;1.40;;;6.80;99.90;;;;;;5077258;28;20687;-69
2022/02/20 06:44:31;;;;;;;4.20;2.15;;;6.80;99.90;;;;;;5077154;28;20199;-69
2022/02/20 06:46:57;;;;;;;2.85;1.60;;;6.80;99.90;;;;;;5077447;28;20204;-69
2022/02/20 06:49:23;;;;;;;3.20;1.42;;;6.80;99.90;;;;;;5076097;28;20257;-69
2022/02/20 06:51:50;;;;;;;6.88;1.42;;;6.80;99.90;;;;;;5076857;28;20257;-69
2022/02/20 06:54:16;;;;;;;6.30;2.00;;;6.80;99.90;;;;;;5076300;28;20765;-69
2022/02/20 06:56:43;;;;;;;2.42;1.05;;;6.90;99.90;;;;;;5077174;28;20204;-68
2022/02/20 06:59:09;;;;;;;2.85;1.50;;;6.90;99.90;;;;;;5076227;28;20208;-69
2022/02/20 07:01:36;;;;;;;4.03;1.83;;;7.00;99.90;;;;;;5078049;28;21291;-68
2022/02/20 07:04:05;;;;;;;8.00;1.70;;;7.00;99.90;;;;;;5077009;28;20282;-69
2022/02/20 07:06:35;;;;;;;6.18;2.03;;;7.00;99.90;;;;;;5076128;28;20235;-69
2022/02/20 07:09:02;;;;;;;6.38;1.70;;;7.10;99.90;;;;;;5079535;28;20257;-69
2022/02/20 07:11:29;;;;;;;1.88;1.30;;;7.10;99.90;;;;;;5079619;28;20196;-69
2022/02/20 07:13:55;;;;;;;6.32;1.50;;;7.10;99.90;;;;;;5076802;28;20218;-69
2022/02/20 07:16:22;;;;;;;3.55;1.65;;;7.20;99.90;;;;;;5058568;28;20570;-70
2022/02/20 07:18:48;;;;;;;5.28;1.83;;;7.20;99.90;;;;;;5076209;28;20678;-69
2022/02/20 07:21:14;;;;;;;2.22;1.38;;;7.30;99.90;;;;;;5076974;28;20565;-70
2022/02/20 07:23:40;;;;;;;5.10;1.30;;;7.30;99.90;;;;;;5076279;28;20533;-71
2022/02/20 07:26:07;;;;;;;3.40;1.45;;;7.20;99.90;;;;;;5075350;28;20191;-69
2022/02/20 07:28:33;;;;;;;2.20;1.65;;;7.20;99.90;;;;;;5075266;28;20195;-69
2022/02/20 07:30:59;;;;;;;4.20;1.40;;;7.20;99.90;;;;;;5076561;28;20208;-70
2022/02/20 07:33:26;;;;;;;3.35;2.60;;;7.20;99.90;;;;;;5076469;28;20200;-69
2022/02/20 07:35:52;;;;;;;5.53;1.77;;;7.10;99.90;;;;;;5075158;28;20202;-69
2022/02/20 07:38:18;;;;;;;2.13;1.42;;;7.10;99.90;;;;;;5076219;28;20196;-69
2022/02/20 07:40:44;;;;;;;5.35;2.22;;;7.10;99.90;;;;;;5076775;28;20577;-69
2022/02/20 07:43:11;;;;;;;4.70;1.65;;;7.10;99.90;;;;;;5076405;28;20252;-69
2022/02/20 07:45:37;;;;;;;3.53;1.33;;;7.10;99.90;;;;;;5076704;28;20200;-69
2022/02/20 07:48:03;;;;;;;4.97;1.58;;;7.10;99.90;;;;;;5076464;28;20208;-69
2022/02/20 07:50:35;;;;;;;1.70;1.35;;;7.10;99.90;;;;;;5076743;28;20200;-70
2022/02/20 07:53:04;;;;;;;3.35;1.48;;;7.10;99.90;;;;;;5075071;28;20203;-70
2022/02/20 07:55:31;;;;;;;3.40;1.10;;;7.10;99.90;;;;;;5076515;28;20196;-70
2022/02/20 07:58:05;;;;;;;5.05;1.83;;;7.10;99.90;;;;;;5076598;28;20196;-69
2022/02/20 08:00:31;;;;;;;3.97;1.30;;;7.10;99.90;;;;;;5076647;28;20224;-70
2022/02/20 08:02:59;;;;;;;7.82;1.40;;;7.10;99.90;;;;;;5075290;28;20196;-69
2022/02/20 08:05:26;;;;;;;3.70;1.30;;;7.10;99.90;;;;;;5075744;28;20679;-70
2022/02/20 08:07:52;;;;;;;3.40;1.45;;;7.10;99.90;;;;;;5076805;28;20196;-69
2022/02/20 08:10:19;;;;;;;3.83;1.25;;;7.10;99.90;;;;;;5076337;28;20555;-69
2022/02/20 08:12:46;;;;;;;2.58;1.30;;;7.10;99.90;;;;;;5076120;28;20211;-69
2022/02/20 08:15:13;;;;;;;5.47;1.33;;;7.10;99.90;;;;;;5075408;28;20567;-69
2022/02/20 08:17:43;;;;;;;2.60;1.08;;;7.10;99.90;;;;;;5075458;28;20616;-69
2022/02/20 08:20:11;;;;;;;3.10;1.98;;;7.10;99.90;;;;;;5076039;28;20630;-69
2022/02/20 08:22:38;;;;;;;2.92;1.42;;;7.20;99.90;;;;;;5074306;28;20200;-69
2022/02/20 08:25:04;;;;;;;1.55;1.08;;;7.20;99.90;;;;;;5075206;28;20212;-69
2022/02/20 08:27:34;;;;;;;2.22;1.15;;;7.20;99.90;;;;;;5075477;28;20192;-69
2022/02/20 08:30:01;;;;;;;9.43;1.42;;;7.30;99.90;;;;;;5074794;28;20204;-69
2022/02/20 08:32:28;;;;;;;1.98;1.05;;;7.30;99.90;;;;;;5075360;28;20200;-69
2022/02/20 08:34:54;;;;;;;4.97;1.85;;;7.30;99.90;;;;;;5075305;28;20210;-70
2022/02/20 08:37:20;;;;;;;5.65;1.90;;;7.30;99.90;;;;;;5074103;28;20199;-70
2022/02/20 08:39:47;;;;;;;2.90;1.75;;;7.40;99.90;;;;;;5073463;28;20265;-70
2022/02/20 08:42:13;;;;;;;1.70;1.10;;;7.40;99.90;;;;;;5074324;28;20231;-70
2022/02/20 08:44:41;;;;;;;2.33;1.00;;;7.40;99.90;;;;;;5075216;28;20200;-70
2022/02/20 08:47:08;;;;;;;1.70;1.20;;;7.40;99.90;;;;;;5074944;28;20195;-70
2022/02/20 08:49:34;;;;;;;1.42;1.00;;;7.40;99.90;;;;;;5075171;28;20204;-69
2022/02/20 08:52:01;;;;;;;2.13;1.35;;;7.40;99.90;;;;;;5075289;28;20204;-68
2022/02/20 08:54:27;;;;;;;2.45;1.13;;;7.40;99.90;;;;;;5075720;28;20199;-69
2022/02/20 08:56:54;;;;;;;2.30;0.98;;;7.50;99.90;;;;;;5073720;28;20567;-69
2022/02/20 08:59:22;;;;;;;2.70;1.10;;;7.50;99.90;;;;;;5075992;28;20588;-70
2022/02/20 09:01:48;;;;;;;4.13;1.42;;;7.60;99.90;;;;;;5075402;28;20223;-68
2022/02/20 09:04:17;;;;;;;2.30;1.10;;;7.60;99.90;;;;;;5075639;28;20224;-70
2022/02/20 09:06:43;;;;;;;1.92;1.70;;;7.60;99.90;;;;;;5077815;28;20230;-70
2022/02/20 09:09:10;;;;;;;2.63;1.10;;;7.60;99.90;;;;;;5075302;28;20293;-69
2022/02/20 09:11:39;;;;;;;1.90;1.30;;;7.70;99.90;;;;;;5075376;28;20210;-69
2022/02/20 09:14:07;;;;;;;2.00;0.85;;;7.70;99.90;;;;;;5079940;28;20208;-71
2022/02/20 09:16:36;;;;;;;2.90;1.20;;;7.70;99.90;;;;;;5074320;28;20199;-70
2022/02/20 09:19:06;;;;;;;1.35;0.98;;;7.80;99.90;;;;;;5073839;28;20211;-69
2022/02/20 09:21:33;;;;;;;1.25;1.15;;;7.80;99.90;;;;;;5075885;28;20277;-70
2022/02/20 09:24:00;;;;;;;0.85;0.82;;;7.80;99.90;;;;;;5075864;28;20199;-70
2022/02/20 09:26:27;;;;;;;0.75;0.73;;;7.80;99.90;;;;;;5075107;28;20665;-70
2022/02/20 09:28:53;;;;;;;2.10;0.90;;;7.70;99.90;;;;;;5074941;28;20196;-69
2022/02/20 09:31:20;;;;;;;0.90;0.90;;;7.70;99.90;;;;;;5074947;28;20200;-69
2022/02/20 09:33:46;;;;;;;1.92;1.00;;;7.70;99.90;;;;;;5075775;28;20199;-69
2022/02/20 09:36:13;;;;;;;2.28;0.80;;;7.70;99.90;;;;;;5074854;28;20215;-70
2022/02/20 09:38:41;;;;;;;1.75;0.90;;;7.80;99.90;;;;;;5073999;28;20203;-69
2022/02/20 09:41:10;;;;;;;2.30;0.90;;;7.80;99.90;;;;;;5074203;28;20212;-69
2022/02/20 09:43:38;;;;;;;1.23;0.93;;;7.80;99.90;;;;;;5074236;28;20262;-69
2022/02/20 09:46:06;;;;;;;2.95;1.00;;;7.70;99.90;;;;;;5074471;28;20196;-69
2022/02/20 09:48:34;;;;;;;0.82;0.80;;;7.70;99.90;;;;;;5074017;28;20200;-69
2022/02/20 09:51:00;;;;;;;1.50;1.33;;;7.80;99.90;;;;;;5074040;28;20206;-69
2022/02/20 09:53:28;;;;;;;0.85;0.85;;;7.70;99.90;;;;;;5073987;28;20222;-69
2022/02/20 09:55:55;;;;;;;0.80;0.80;;;7.70;99.90;;;;;;5073094;28;20257;-69
2022/02/20 09:58:21;;;;;;;7.82;4.03;;;7.70;99.90;;;;;;5073334;28;20206;-69
2022/02/20 10:00:56;;;;;;;0.90;0.80;;;7.70;99.90;;;;;;5073924;28;20220;-69
2022/02/20 10:03:37;;;;;;;3.30;1.00;;;7.60;99.90;;;;;;5073893;28;20199;-69
2022/02/20 10:06:09;;;;;;;1.08;1.08;;;7.70;99.90;;;;;;5073143;28;20714;-69
2022/02/20 10:08:46;;;;;;;1.20;1.10;;;7.80;99.90;;;;;;5073685;28;20196;-69
2022/02/20 10:11:21;;;;;;;0.90;0.80;;;7.80;99.90;;;;;;5072137;28;20208;-70
2022/02/20 10:13:53;;;;;;;1.27;0.90;;;8.00;99.90;;;;;;5072083;28;20208;-69
2022/02/20 10:16:21;;;;;;;1.52;0.80;;;8.10;99.90;;;;;;5073856;28;20208;-70
2022/02/20 10:18:50;;;;;;;2.88;0.98;;;8.20;99.90;;;;;;5074041;28;20206;-69
2022/02/20 10:21:25;;;;;;;0.85;0.80;;;8.30;99.90;;;;;;5073691;28;20247;-69
2022/02/20 10:23:53;;;;;;;0.85;0.73;;;8.30;99.90;;;;;;5073451;28;20207;-69
2022/02/20 10:26:23;;;;;;;0.80;0.70;;;8.40;99.90;;;;;;5073729;28;20196;-69
2022/02/20 10:29:09;;;;;;;1.55;0.90;;;8.50;99.90;;;;;;5072269;28;20204;-69
2022/02/20 10:31:48;;;;;;;3.53;1.02;;;8.50;99.90;;;;;;5073713;28;20211;-69
2022/02/20 10:34:17;;;;;;;1.98;0.90;;;8.40;99.90;;;;;;5073166;28;20184;-69
2022/02/20 10:36:49;;;;;;;1.65;0.80;;;8.30;99.90;;;;;;5073485;28;20286;-69
2022/02/20 10:39:39;;;;;;;0.90;0.80;;;8.30;99.90;;;;;;5077260;28;20188;-69
2022/02/20 10:42:19;;;;;;;1.40;1.05;;;8.30;99.90;;;;;;5076079;28;20706;-70
2022/02/20 10:45:00;;;;;;;1.30;0.95;;;8.30;99.90;;;;;;5077233;28;20196;-70
2022/02/20 10:47:30;;;;;;;0.90;0.77;;;8.40;99.90;;;;;;5075131;28;20241;-70
2022/02/20 10:50:18;;;;;;;0.82;0.70;;;8.40;99.90;;;;;;5077192;28;20220;-70
2022/02/20 10:52:46;;;;;;;0.90;0.80;;;8.40;99.90;;;;;;5076668;28;20243;-70
2022/02/20 10:55:14;;;;;;;1.23;0.88;;;8.40;99.90;;;;;;5077410;28;20566;-70
2022/02/20 10:57:44;;;;;;;1.35;0.82;;;8.40;99.90;;;;;;5076925;28;20200;-70
2022/02/20 11:00:15;;;;;;;1.33;0.90;;;8.40;99.90;;;;;;5076710;28;20566;-70
2022/02/20 11:02:43;;;;;;;1.13;0.70;;;8.60;99.90;;;;;;5076859;28;20270;-70
2022/02/20 11:05:13;;;;;;;1.30;1.23;;;8.70;99.90;;;;;;5077057;28;20303;-70
2022/02/20 11:07:40;;;;;;;1.70;0.70;;;8.60;99.90;;;;;;5075302;28;20227;-70
2022/02/20 11:10:11;;;;;;;4.35;0.70;;;8.60;99.90;;;;;;5076338;28;20211;-70
2022/02/20 11:12:38;;;;;;;2.58;0.73;;;8.70;99.90;;;;;;5076327;28;20218;-70
2022/02/20 11:15:06;;;;;;;0.95;0.85;;;8.70;99.90;;;;;;5076806;28;20200;-70
2022/02/20 11:17:34;;;;;;;1.20;1.10;;;8.80;99.90;;;;;;5076859;28;20214;-70
2022/02/20 11:20:03;;;;;;;1.45;0.80;;;8.80;99.90;;;;;;5076362;28;20203;-70
2022/02/20 11:22:32;;;;;;;1.05;0.90;;;8.80;99.90;;;;;;5076256;28;20227;-70
2022/02/20 11:24:59;;;;;;;1.42;0.60;;;8.80;99.90;;;;;;5076614;28;20630;-70
2022/02/20 11:27:26;;;;;;;0.90;0.80;;;8.90;99.90;;;;;;5077174;28;20192;-70
2022/02/20 11:29:53;;;;;;;0.80;0.70;;;8.90;99.90;;;;;;5076584;28;20659;-70
2022/02/20 11:32:21;;;;;;;1.63;0.80;;;8.90;99.90;;;;;;5075499;28;20219;-70
2022/02/20 11:34:48;;;;;;;2.22;0.80;;;9.00;99.90;;;;;;5077022;28;20223;-70
2022/02/20 11:37:15;;;;;;;1.20;0.60;;;9.00;99.90;;;;;;5077068;28;20196;-70
2022/02/20 11:40:07;;;;;;;1.20;0.63;;;9.10;99.90;;;;;;5076384;28;20204;-70
2022/02/20 11:42:35;;;;;;;1.77;1.00;;;9.00;99.90;;;;;;5076490;28;20220;-70
2022/02/20 11:45:06;;;;;;;2.08;0.70;;;9.00;99.90;;;;;;5076739;28;20208;-70
2022/02/20 11:47:45;;;;;;;0.60;0.60;;;9.10;99.90;;;;;;5076579;28;20199;-70
2022/02/20 11:50:18;;;;;;;2.67;0.80;;;9.10;99.90;;;;;;5075339;28;20666;-70
2022/02/20 11:52:50;;;;;;;2.90;0.75;;;9.10;99.90;;;;;;5076071;28;20207;-70
2022/02/20 11:55:24;;;;;;;1.70;1.13;;;9.20;99.90;;;;;;5077806;28;20200;-70
2022/02/20 11:58:16;;;;;;;0.75;0.70;;;9.30;99.90;;;;;;5076888;28;20184;-70
2022/02/20 12:00:55;;;;;;;1.30;0.90;;;9.30;99.90;;;;;;5061184;28;20515;-68
2022/02/20 12:03:25;;;;;;;2.40;0.80;;;9.50;99.90;;;;;;5075785;28;20587;-70
2022/02/20 12:06:09;;;;;;;2.47;0.80;;;9.60;99.90;;;;;;5075764;28;20242;-69
2022/02/20 12:08:41;;;;;;;0.88;0.75;;;9.60;99.90;;;;;;5075586;28;20578;-69
2022/02/20 12:11:25;;;;;;;1.40;1.05;;;9.70;99.90;;;;;;5076040;28;20190;-69
2022/02/20 12:14:20;;;;;;;3.13;1.23;;;9.70;99.90;;;;;;5075647;28;20573;-70
2022/02/20 12:16:51;;;;;;;1.65;0.98;;;9.70;99.90;;;;;;5075399;28;20203;-69
2022/02/20 12:19:35;;;;;;;0.65;0.60;;;9.80;99.90;;;;;;5075616;28;20519;-69
2022/02/20 12:22:26;;;;;;;0.70;0.70;;;9.90;99.90;;;;;;5074342;28;20234;-69
2022/02/20 12:25:00;;;;;;;1.75;0.93;;;9.90;99.90;;;;;;5075537;28;20555;-69
2022/02/20 12:27:29;;;;;;;2.25;1.10;;;9.80;99.90;;;;;;5075460;28;20185;-69
2022/02/20 12:30:05;;;;;;;5.38;1.40;;;9.90;99.90;;;;;;5075983;28;20207;-69
2022/02/20 12:32:33;;;;;;;1.95;1.00;;;10.00;99.90;;;;;;5076356;28;20209;-69
2022/02/20 12:35:22;;;;;;;0.80;0.80;;;10.00;99.90;;;;;;5074313;28;20245;-69
2022/02/20 12:37:55;;;;;;;6.80;0.90;;;10.10;99.90;;;;;;5075328;28;20245;-69
2022/02/20 12:40:31;;;;;;;3.72;1.00;;;10.10;99.90;;;;;;5075350;28;20526;-70
2022/02/20 12:43:02;;;;;;;1.05;0.80;;;10.10;99.90;;;;;;5075291;28;20618;-69
2022/02/20 12:45:33;;;;;;;1.00;0.82;;;10.20;99.90;;;;;;5075401;28;20652;-69
2022/02/20 12:48:06;;;;;;;1.25;0.90;;;10.30;99.90;;;;;;5075799;28;20204;-69
2022/02/20 12:50:36;;;;;;;1.83;1.63;;;10.40;99.90;;;;;;5074894;28;20215;-69
2022/02/20 12:53:03;;;;;;;2.75;1.00;;;10.50;99.90;;;;;;5074055;28;20204;-70
2022/02/20 12:55:31;;;;;;;0.73;0.73;;;10.70;99.90;;;;;;5073813;28;20203;-69
2022/02/20 12:58:04;;;;;;;0.90;0.60;;;10.70;99.90;;;;;;5073223;28;20215;-69
2022/02/20 13:00:32;;;;;;;0.70;0.60;;;;;;;;;;5073958;28;20191;-69